sensor_id;sensor_type;location;lat;lon;timestamp;pressure;altitude;pressure_sealevel;temperature;humidity
32131;BME280;18639;50.716;7.086;2023-04-02T00:04:44;99434.69;;;9.80;100.00
32131;BME280;18639;50.716;7.086;2023-04-02T00:07:27;99444.81;;;9.83;100.00
32131;BME280;18639;50.716;7.086;2023-04-02T00:09:57;99437.53;;;9.77;100.00
32131;BME280;18639;50.716;7.086;2023-04-02T00:12:23;99424.16;;;9.71;100.00
32131;BME280;18639;50.716;7.086;2023-04-02T00:14:52;99457.94;;;9.91;100.00
32131;BME280;18639;50.716;7.086;2023-04-02T00:17:20;99469.91;;;9.92;100.00
32131;BME280;18639;50.716;7.086;2023-04-02T00:19:51;99470.38;;;9.86;100.00
32131;BME280;18639;50.716;7.086;2023-04-02T00:22:21;99466.84;;;9.87;100.00
32131;BME280;18639;50.716;7.086;2023-04-02T00:24:49;99474.34;;;9.90;100.00
32131;BME280;18639;50.716;7.086;2023-04-02T00:27:16;99483.75;;;9.91;100.00
32131;BME280;18639;50.716;7.086;2023-04-02T00:29:49;99479.50;;;9.79;100.00
32131;BME280;18639;50.716;7.086;2023-04-02T00:32:32;99484.78;;;9.88;100.00
32131;BME280;18639;50.716;7.086;2023-04-02T00:34:58;99489.34;;;9.85;100.00
32131;BME280;18639;50.716;7.086;2023-04-02T00:37:27;99500.41;;;9.87;100.00
32131;BME280;18639;50.716;7.086;2023-04-02T00:40:06;99497.34;;;9.82;100.00
32131;BME280;18639;50.716;7.086;2023-04-02T00:42:34;99508.59;;;9.81;100.00
32131;BME280;18639;50.716;7.086;2023-04-02T00:45:03;99506.00;;;9.81;100.00
32131;BME280;18639;50.716;7.086;2023-04-02T00:47:34;99511.06;;;9.82;100.00
32131;BME280;18639;50.716;7.086;2023-04-02T00:50:16;99515.75;;;9.77;100.00
32131;BME280;18639;50.716;7.086;2023-04-02T00:52:45;99519.41;;;9.86;100.00
32131;BME280;18639;50.716;7.086;2023-04-02T00:55:18;99521.97;;;9.86;100.00
32131;BME280;18639;50.716;7.086;2023-04-02T00:57:47;99523.38;;;9.90;100.00
32131;BME280;18639;50.716;7.086;2023-04-02T01:02:40;99526.41;;;9.84;100.00
32131;BME280;18639;50.716;7.086;2023-04-02T01:05:20;99526.41;;;9.84;100.00
32131;BME280;18639;50.716;7.086;2023-04-02T01:08:04;99519.25;;;9.76;100.00
32131;BME280;18639;50.716;7.086;2023-04-02T01:13:35;99524.41;;;9.76;100.00
32131;BME280;18639;50.716;7.086;2023-04-02T01:16:18;99533.00;;;9.77;100.00
32131;BME280;18639;50.716;7.086;2023-04-02T01:19:18;99538.72;;;9.80;100.00
32131;BME280;18639;50.716;7.086;2023-04-02T01:22:15;99548.22;;;9.80;100.00
32131;BME280;18639;50.716;7.086;2023-04-02T01:24:47;99530.25;;;9.67;100.00
32131;BME280;18639;50.716;7.086;2023-04-02T01:27:23;99550.81;;;9.80;100.00
32131;BME280;18639;50.716;7.086;2023-04-02T01:29:53;99559.63;;;9.77;100.00
32131;BME280;18639;50.716;7.086;2023-04-02T01:32:22;99547.50;;;9.66;100.00
32131;BME280;18639;50.716;7.086;2023-04-02T01:34:49;99563.94;;;9.77;100.00
32131;BME280;18639;50.716;7.086;2023-04-02T01:37:26;99574.25;;;9.77;100.00
32131;BME280;18639;50.716;7.086;2023-04-02T01:42:59;99571.19;;;9.71;100.00
32131;BME280;18639;50.716;7.086;2023-04-02T01:45:28;99591.00;;;9.71;100.00
32131;BME280;18639;50.716;7.086;2023-04-02T01:47:54;99590.19;;;9.70;100.00
32131;BME280;18639;50.716;7.086;2023-04-02T01:50:33;99599.09;;;9.66;100.00
32131;BME280;18639;50.716;7.086;2023-04-02T01:53:06;99584.06;;;9.60;100.00
32131;BME280;18639;50.716;7.086;2023-04-02T01:55:44;99604.00;;;9.69;100.00
32131;BME280;18639;50.716;7.086;2023-04-02T01:58:12;99589.09;;;9.62;100.00
32131;BME280;18639;50.716;7.086;2023-04-02T02:01:03;99612.91;;;9.65;100.00
32131;BME280;18639;50.716;7.086;2023-04-02T02:03:30;99600.19;;;9.51;100.00
32131;BME280;18639;50.716;7.086;2023-04-02T02:05:56;99599.47;;;9.49;100.00
32131;BME280;18639;50.716;7.086;2023-04-02T02:08:37;99626.25;;;9.59;100.00
32131;BME280;18639;50.716;7.086;2023-04-02T02:11:03;99610.72;;;9.48;100.00
32131;BME280;18639;50.716;7.086;2023-04-02T02:13:29;99608.97;;;9.49;100.00
32131;BME280;18639;50.716;7.086;2023-04-02T02:15:58;99624.94;;;9.54;100.00
32131;BME280;18639;50.716;7.086;2023-04-02T02:18:24;99649.03;;;9.65;100.00
32131;BME280;18639;50.716;7.086;2023-04-02T02:20:51;99653.97;;;9.68;100.00
32131;BME280;18639;50.716;7.086;2023-04-02T02:23:18;99658.09;;;9.71;100.00
32131;BME280;18639;50.716;7.086;2023-04-02T02:25:45;99654.78;;;9.69;100.00
32131;BME280;18639;50.716;7.086;2023-04-02T02:28:26;99662.69;;;9.79;100.00
32131;BME280;18639;50.716;7.086;2023-04-02T02:31:00;99649.25;;;9.62;100.00
32131;BME280;18639;50.716;7.086;2023-04-02T02:33:33;99657.25;;;9.70;100.00
32131;BME280;18639;50.716;7.086;2023-04-02T02:38:50;99686.53;;;9.82;100.00
32131;BME280;18639;50.716;7.086;2023-04-02T02:41:34;99681.56;;;9.79;100.00
32131;BME280;18639;50.716;7.086;2023-04-02T02:44:13;99694.38;;;9.81;100.00
32131;BME280;18639;50.716;7.086;2023-04-02T02:46:48;99692.72;;;9.80;100.00
32131;BME280;18639;50.716;7.086;2023-04-02T02:49:18;99698.81;;;9.79;100.00
32131;BME280;18639;50.716;7.086;2023-04-02T02:52:00;99703.53;;;9.85;100.00
32131;BME280;18639;50.716;7.086;2023-04-02T02:54:26;99693.88;;;9.76;100.00
32131;BME280;18639;50.716;7.086;2023-04-02T02:56:57;99703.03;;;9.80;100.00
32131;BME280;18639;50.716;7.086;2023-04-02T02:59:26;99706.53;;;9.79;100.00
32131;BME280;18639;50.716;7.086;2023-04-02T03:01:53;99719.72;;;9.87;100.00
32131;BME280;18639;50.716;7.086;2023-04-02T03:04:20;99734.97;;;9.90;100.00
32131;BME280;18639;50.716;7.086;2023-04-02T03:06:49;99710.50;;;9.71;100.00
32131;BME280;18639;50.716;7.086;2023-04-02T03:09:37;99740.16;;;9.90;100.00
32131;BME280;18639;50.716;7.086;2023-04-02T03:12:27;99730.50;;;9.81;100.00
32131;BME280;18639;50.716;7.086;2023-04-02T03:15:05;99742.22;;;9.85;100.00
32131;BME280;18639;50.716;7.086;2023-04-02T03:17:44;99759.75;;;9.92;100.00
32131;BME280;18639;50.716;7.086;2023-04-02T03:20:23;99752.22;;;9.89;100.00
32131;BME280;18639;50.716;7.086;2023-04-02T03:22:56;99759.13;;;9.89;100.00
32131;BME280;18639;50.716;7.086;2023-04-02T03:25:44;99766.44;;;9.95;100.00
32131;BME280;18639;50.716;7.086;2023-04-02T03:28:15;99759.28;;;9.87;100.00
32131;BME280;18639;50.716;7.086;2023-04-02T03:30:53;99757.72;;;9.85;100.00
32131;BME280;18639;50.716;7.086;2023-04-02T03:33:24;99780.50;;;9.91;100.00
32131;BME280;18639;50.716;7.086;2023-04-02T03:38:49;99784.75;;;9.92;100.00
32131;BME280;18639;50.716;7.086;2023-04-02T03:41:20;99797.66;;;9.92;100.00
32131;BME280;18639;50.716;7.086;2023-04-02T03:43:52;99802.50;;;9.84;100.00
32131;BME280;18639;50.716;7.086;2023-04-02T03:46:38;99801.59;;;9.85;100.00
32131;BME280;18639;50.716;7.086;2023-04-02T03:49:34;99803.75;;;9.78;100.00
32131;BME280;18639;50.716;7.086;2023-04-02T03:52:04;99812.66;;;9.74;100.00
32131;BME280;18639;50.716;7.086;2023-04-02T03:54:33;99794.84;;;9.58;100.00
32131;BME280;18639;50.716;7.086;2023-04-02T03:56:58;99830.72;;;9.74;100.00
32131;BME280;18639;50.716;7.086;2023-04-02T03:59:35;99816.47;;;9.68;100.00
32131;BME280;18639;50.716;7.086;2023-04-02T04:02:12;99823.63;;;9.65;100.00
32131;BME280;18639;50.716;7.086;2023-04-02T04:04:41;99825.78;;;9.58;100.00
32131;BME280;18639;50.716;7.086;2023-04-02T04:07:18;99849.09;;;9.69;100.00
32131;BME280;18639;50.716;7.086;2023-04-02T04:09:45;99832.28;;;9.51;100.00
32131;BME280;18639;50.716;7.086;2023-04-02T04:12:29;99852.41;;;9.59;100.00
32131;BME280;18639;50.716;7.086;2023-04-02T04:15:06;99850.88;;;9.44;100.00
32131;BME280;18639;50.716;7.086;2023-04-02T04:17:40;99864.06;;;9.52;100.00
32131;BME280;18639;50.716;7.086;2023-04-02T04:20:19;99874.78;;;9.46;100.00
32131;BME280;18639;50.716;7.086;2023-04-02T04:22:50;99869.63;;;9.46;100.00
32131;BME280;18639;50.716;7.086;2023-04-02T04:25:27;99851.09;;;9.28;100.00
32131;BME280;18639;50.716;7.086;2023-04-02T04:28:03;99886.97;;;9.44;100.00
32131;BME280;18639;50.716;7.086;2023-04-02T04:31:07;99894.06;;;9.40;100.00
32131;BME280;18639;50.716;7.086;2023-04-02T04:33:44;99899.13;;;9.42;100.00
32131;BME280;18639;50.716;7.086;2023-04-02T04:36:25;99909.47;;;9.42;100.00
32131;BME280;18639;50.716;7.086;2023-04-02T04:38:53;99911.09;;;9.30;100.00
32131;BME280;18639;50.716;7.086;2023-04-02T04:41:27;99897.47;;;9.15;100.00
32131;BME280;18639;50.716;7.086;2023-04-02T04:43:56;99928.44;;;9.28;100.00
32131;BME280;18639;50.716;7.086;2023-04-02T04:46:34;99929.13;;;9.17;100.00
32131;BME280;18639;50.716;7.086;2023-04-02T04:49:19;99935.81;;;9.20;100.00
32131;BME280;18639;50.716;7.086;2023-04-02T04:51:50;99935.81;;;9.07;100.00
32131;BME280;18639;50.716;7.086;2023-04-02T04:54:18;99947.50;;;9.13;100.00
32131;BME280;18639;50.716;7.086;2023-04-02T04:56:47;99940.16;;;9.07;100.00
32131;BME280;18639;50.716;7.086;2023-04-02T04:59:19;99957.88;;;9.11;100.00
32131;BME280;18639;50.716;7.086;2023-04-02T05:01:54;99965.19;;;9.05;100.00
32131;BME280;18639;50.716;7.086;2023-04-02T05:04:38;99981.56;;;9.04;100.00
32131;BME280;18639;50.716;7.086;2023-04-02T05:07:27;99975.34;;;8.94;100.00
32131;BME280;18639;50.716;7.086;2023-04-02T05:10:01;99943.06;;;8.61;100.00
32131;BME280;18639;50.716;7.086;2023-04-02T05:15:56;99997.13;;;8.75;100.00
32131;BME280;18639;50.716;7.086;2023-04-02T05:18:39;100007.53;;;8.74;100.00
32131;BME280;18639;50.716;7.086;2023-04-02T05:23:47;100002.41;;;8.60;100.00
32131;BME280;18639;50.716;7.086;2023-04-02T05:26:18;100022.25;;;8.72;100.00
32131;BME280;18639;50.716;7.086;2023-04-02T05:29:06;100021.31;;;8.73;100.00
32131;BME280;18639;50.716;7.086;2023-04-02T05:34:07;100029.34;;;8.68;100.00
32131;BME280;18639;50.716;7.086;2023-04-02T05:36:33;100014.09;;;8.51;100.00
32131;BME280;18639;50.716;7.086;2023-04-02T05:38:58;100038.34;;;8.61;100.00
32131;BME280;18639;50.716;7.086;2023-04-02T05:41:30;100031.41;;;8.49;100.00
32131;BME280;18639;50.716;7.086;2023-04-02T05:44:19;100061.53;;;8.61;100.00
32131;BME280;18639;50.716;7.086;2023-04-02T05:46:59;100070.38;;;8.57;100.00
32131;BME280;18639;50.716;7.086;2023-04-02T05:49:40;100065.78;;;8.48;100.00
32131;BME280;18639;50.716;7.086;2023-04-02T05:52:12;100083.69;;;8.50;100.00
32131;BME280;18639;50.716;7.086;2023-04-02T05:54:46;100085.19;;;8.54;100.00
32131;BME280;18639;50.716;7.086;2023-04-02T05:57:20;100092.25;;;8.50;100.00
32131;BME280;18639;50.716;7.086;2023-04-02T05:59:51;100099.25;;;8.48;100.00
32131;BME280;18639;50.716;7.086;2023-04-02T06:02:26;100101.94;;;8.47;100.00
32131;BME280;18639;50.716;7.086;2023-04-02T06:07:31;100104.13;;;8.38;100.00
32131;BME280;18639;50.716;7.086;2023-04-02T06:12:40;100122.81;;;8.42;100.00
32131;BME280;18639;50.716;7.086;2023-04-02T06:15:20;100104.16;;;8.23;100.00
32131;BME280;18639;50.716;7.086;2023-04-02T06:18:04;100133.13;;;8.26;100.00
32131;BME280;18639;50.716;7.086;2023-04-02T06:20:30;100154.06;;;8.36;100.00
32131;BME280;18639;50.716;7.086;2023-04-02T06:23:01;100158.28;;;8.37;100.00
32131;BME280;18639;50.716;7.086;2023-04-02T06:25:48;100159.38;;;8.33;100.00
32131;BME280;18639;50.716;7.086;2023-04-02T06:28:39;100156.00;;;8.32;100.00
32131;BME280;18639;50.716;7.086;2023-04-02T06:31:10;100172.91;;;8.36;100.00
32131;BME280;18639;50.716;7.086;2023-04-02T06:33:39;100172.44;;;8.30;100.00
32131;BME280;18639;50.716;7.086;2023-04-02T06:36:05;100174.84;;;8.33;100.00
32131;BME280;18639;50.716;7.086;2023-04-02T06:38:32;100189.44;;;8.32;100.00
32131;BME280;18639;50.716;7.086;2023-04-02T06:41:03;100190.94;;;8.36;100.00
32131;BME280;18639;50.716;7.086;2023-04-02T06:43:45;100202.22;;;8.34;100.00
32131;BME280;18639;50.716;7.086;2023-04-02T06:46:18;100198.00;;;8.33;100.00
32131;BME280;18639;50.716;7.086;2023-04-02T06:48:46;100217.66;;;8.34;100.00
32131;BME280;18639;50.716;7.086;2023-04-02T06:51:17;100227.03;;;8.35;100.00
32131;BME280;18639;50.716;7.086;2023-04-02T06:53:48;100223.63;;;8.34;100.00
32131;BME280;18639;50.716;7.086;2023-04-02T06:56:39;100236.63;;;8.33;100.00
32131;BME280;18639;50.716;7.086;2023-04-02T06:59:05;100237.06;;;8.39;100.00
32131;BME280;18639;50.716;7.086;2023-04-02T07:01:36;100235.88;;;8.31;100.00
32131;BME280;18639;50.716;7.086;2023-04-02T07:04:04;100246.91;;;8.33;100.00
32131;BME280;18639;50.716;7.086;2023-04-02T07:06:29;100260.09;;;8.27;100.00
32131;BME280;18639;50.716;7.086;2023-04-02T07:08:55;100258.03;;;8.18;100.00
32131;BME280;18639;50.716;7.086;2023-04-02T07:11:21;100273.13;;;8.24;100.00
32131;BME280;18639;50.716;7.086;2023-04-02T07:13:47;100279.63;;;8.15;100.00
32131;BME280;18639;50.716;7.086;2023-04-02T07:16:22;100265.69;;;8.03;100.00
32131;BME280;18639;50.716;7.086;2023-04-02T07:18:51;100267.88;;;7.95;100.00
32131;BME280;18639;50.716;7.086;2023-04-02T07:21:17;100299.91;;;8.06;100.00
32131;BME280;18639;50.716;7.086;2023-04-02T07:23:42;100300.31;;;7.98;100.00
32131;BME280;18639;50.716;7.086;2023-04-02T07:26:12;100296.06;;;7.97;100.00
32131;BME280;18639;50.716;7.086;2023-04-02T07:28:38;100303.88;;;8.11;100.00
32131;BME280;18639;50.716;7.086;2023-04-02T07:31:12;100303.06;;;8.11;100.00
32131;BME280;18639;50.716;7.086;2023-04-02T07:33:38;100312.06;;;8.18;100.00
32131;BME280;18639;50.716;7.086;2023-04-02T07:36:05;100319.72;;;8.19;100.00
32131;BME280;18639;50.716;7.086;2023-04-02T07:38:30;100316.31;;;8.19;100.00
32131;BME280;18639;50.716;7.086;2023-04-02T07:40:56;100308.53;;;8.04;100.00
32131;BME280;18639;50.716;7.086;2023-04-02T07:43:22;100327.28;;;8.22;100.00
32131;BME280;18639;50.716;7.086;2023-04-02T07:45:49;100330.09;;;8.18;100.00
32131;BME280;18639;50.716;7.086;2023-04-02T07:48:14;100339.13;;;8.25;100.00
32131;BME280;18639;50.716;7.086;2023-04-02T07:50:39;100356.69;;;8.34;100.00
32131;BME280;18639;50.716;7.086;2023-04-02T07:53:05;100378.28;;;8.31;100.00
32131;BME280;18639;50.716;7.086;2023-04-02T07:55:31;100359.16;;;8.20;100.00
32131;BME280;18639;50.716;7.086;2023-04-02T07:57:57;100375.19;;;8.25;100.00
32131;BME280;18639;50.716;7.086;2023-04-02T08:00:25;100372.94;;;8.19;100.00
32131;BME280;18639;50.716;7.086;2023-04-02T08:02:51;100374.59;;;8.20;100.00
32131;BME280;18639;50.716;7.086;2023-04-02T08:05:17;100370.94;;;8.08;100.00
32131;BME280;18639;50.716;7.086;2023-04-02T08:07:55;100387.41;;;8.21;100.00
32131;BME280;18639;50.716;7.086;2023-04-02T08:10:21;100383.72;;;8.10;100.00
32131;BME280;18639;50.716;7.086;2023-04-02T08:12:47;100404.59;;;8.21;100.00
32131;BME280;18639;50.716;7.086;2023-04-02T08:15:14;100404.25;;;8.27;100.00
32131;BME280;18639;50.716;7.086;2023-04-02T08:17:40;100405.91;;;8.28;100.00
32131;BME280;18639;50.716;7.086;2023-04-02T08:20:13;100406.00;;;8.11;100.00
32131;BME280;18639;50.716;7.086;2023-04-02T08:22:38;100413.28;;;8.18;100.00
32131;BME280;18639;50.716;7.086;2023-04-02T08:25:04;100425.19;;;8.21;100.00
32131;BME280;18639;50.716;7.086;2023-04-02T08:27:30;100425.00;;;8.24;100.00
32131;BME280;18639;50.716;7.086;2023-04-02T08:29:55;100441.03;;;8.29;100.00
32131;BME280;18639;50.716;7.086;2023-04-02T08:32:20;100421.78;;;8.20;100.00
32131;BME280;18639;50.716;7.086;2023-04-02T08:34:47;100448.72;;;8.30;100.00
32131;BME280;18639;50.716;7.086;2023-04-02T08:37:13;100450.88;;;8.38;100.00
32131;BME280;18639;50.716;7.086;2023-04-02T08:39:38;100452.03;;;8.32;100.00
32131;BME280;18639;50.716;7.086;2023-04-02T08:42:31;100471.47;;;8.38;100.00
32131;BME280;18639;50.716;7.086;2023-04-02T08:45:22;100470.47;;;8.40;100.00
32131;BME280;18639;50.716;7.086;2023-04-02T08:47:56;100460.31;;;8.22;100.00
32131;BME280;18639;50.716;7.086;2023-04-02T08:50:38;100482.09;;;8.32;100.00
32131;BME280;18639;50.716;7.086;2023-04-02T08:53:26;100493.88;;;8.36;100.00
32131;BME280;18639;50.716;7.086;2023-04-02T08:56:06;100501.38;;;8.40;100.00
32131;BME280;18639;50.716;7.086;2023-04-02T08:58:46;100502.59;;;8.33;100.00
32131;BME280;18639;50.716;7.086;2023-04-02T09:03:46;100503.81;;;8.26;100.00
32131;BME280;18639;50.716;7.086;2023-04-02T09:06:16;100508.97;;;8.26;100.00
32131;BME280;18639;50.716;7.086;2023-04-02T09:08:43;100519.97;;;8.30;100.00
32131;BME280;18639;50.716;7.086;2023-04-02T09:13:47;100515.25;;;8.21;100.00
32131;BME280;18639;50.716;7.086;2023-04-02T09:16:19;100526.78;;;8.31;100.00
32131;BME280;18639;50.716;7.086;2023-04-02T09:18:48;100531.31;;;8.26;100.00
32131;BME280;18639;50.716;7.086;2023-04-02T09:23:46;100535.78;;;8.22;100.00
32131;BME280;18639;50.716;7.086;2023-04-02T09:28:44;100542.63;;;8.06;100.00
32131;BME280;18639;50.716;7.086;2023-04-02T09:31:18;100550.84;;;8.13;100.00
32131;BME280;18639;50.716;7.086;2023-04-02T09:33:50;100548.69;;;8.05;100.00
32131;BME280;18639;50.716;7.086;2023-04-02T09:36:33;100553.66;;;8.08;100.00
32131;BME280;18639;50.716;7.086;2023-04-02T09:39:15;100577.47;;;8.29;100.00
32131;BME280;18639;50.716;7.086;2023-04-02T09:41:41;100586.25;;;8.25;100.00
32131;BME280;18639;50.716;7.086;2023-04-02T09:44:23;100594.00;;;8.25;100.00
32131;BME280;18639;50.716;7.086;2023-04-02T09:49:29;100595.28;;;8.33;100.00
32131;BME280;18639;50.716;7.086;2023-04-02T09:54:31;100613.50;;;8.29;100.00
32131;BME280;18639;50.716;7.086;2023-04-02T09:57:02;100613.59;;;8.27;100.00
32131;BME280;18639;50.716;7.086;2023-04-02T09:59:28;100604.28;;;8.25;100.00
32131;BME280;18639;50.716;7.086;2023-04-02T10:04:46;100626.88;;;8.37;100.00
32131;BME280;18639;50.716;7.086;2023-04-02T10:07:33;100639.34;;;8.27;100.00
32131;BME280;18639;50.716;7.086;2023-04-02T10:10:11;100632.78;;;8.22;100.00
32131;BME280;18639;50.716;7.086;2023-04-02T10:12:42;100638.88;;;8.19;100.00
32131;BME280;18639;50.716;7.086;2023-04-02T10:15:22;100646.97;;;8.29;100.00
32131;BME280;18639;50.716;7.086;2023-04-02T10:18:27;100649.72;;;8.26;100.00
32131;BME280;18639;50.716;7.086;2023-04-02T10:20:58;100647.72;;;8.32;100.00
32131;BME280;18639;50.716;7.086;2023-04-02T10:23:28;100658.66;;;8.36;100.00
32131;BME280;18639;50.716;7.086;2023-04-02T10:26:17;100670.16;;;8.29;100.00
32131;BME280;18639;50.716;7.086;2023-04-02T10:31:30;100669.28;;;8.30;100.00
32131;BME280;18639;50.716;7.086;2023-04-02T10:34:05;100661.31;;;8.34;100.00
32131;BME280;18639;50.716;7.086;2023-04-02T10:36:54;100683.81;;;8.31;100.00
32131;BME280;18639;50.716;7.086;2023-04-02T10:39:35;100689.63;;;8.34;100.00
32131;BME280;18639;50.716;7.086;2023-04-02T10:42:25;100669.66;;;8.22;100.00
32131;BME280;18639;50.716;7.086;2023-04-02T10:45:18;100697.91;;;8.41;100.00
32131;BME280;18639;50.716;7.086;2023-04-02T10:47:55;100715.09;;;8.40;100.00
32131;BME280;18639;50.716;7.086;2023-04-02T10:53:10;100715.81;;;8.25;100.00
32131;BME280;18639;50.716;7.086;2023-04-02T10:55:43;100725.91;;;8.30;100.00
32131;BME280;18639;50.716;7.086;2023-04-02T10:58:19;100729.94;;;8.35;100.00
32131;BME280;18639;50.716;7.086;2023-04-02T11:00:46;100726.78;;;8.29;100.00
32131;BME280;18639;50.716;7.086;2023-04-02T11:03:17;100738.00;;;8.28;100.00
32131;BME280;18639;50.716;7.086;2023-04-02T11:05:46;100737.25;;;8.26;100.00
32131;BME280;18639;50.716;7.086;2023-04-02T11:08:39;100721.19;;;8.21;100.00
32131;BME280;18639;50.716;7.086;2023-04-02T11:13:51;100712.06;;;7.96;100.00
32131;BME280;18639;50.716;7.086;2023-04-02T11:16:18;100764.19;;;8.37;100.00
32131;BME280;18639;50.716;7.086;2023-04-02T11:21:38;100768.88;;;8.47;100.00
32131;BME280;18639;50.716;7.086;2023-04-02T11:24:05;100753.34;;;8.31;100.00
32131;BME280;18639;50.716;7.086;2023-04-02T11:26:46;100777.88;;;8.55;100.00
32131;BME280;18639;50.716;7.086;2023-04-02T11:29:22;100782.88;;;8.58;100.00
32131;BME280;18639;50.716;7.086;2023-04-02T11:31:51;100779.53;;;8.56;100.00
32131;BME280;18639;50.716;7.086;2023-04-02T11:39:55;100791.84;;;8.85;100.00
32131;BME280;18639;50.716;7.086;2023-04-02T11:42:34;100800.34;;;9.03;100.00
32131;BME280;18639;50.716;7.086;2023-04-02T11:55:37;100805.53;;;9.36;100.00
32131;BME280;18639;50.716;7.086;2023-04-02T11:58:28;100804.44;;;9.40;100.00
32131;BME280;18639;50.716;7.086;2023-04-02T12:01:12;100806.88;;;9.43;100.00
32131;BME280;18639;50.716;7.086;2023-04-02T12:06:54;100796.59;;;9.26;100.00
32131;BME280;18639;50.716;7.086;2023-04-02T12:09:26;100821.00;;;9.36;100.00
32131;BME280;18639;50.716;7.086;2023-04-02T12:11:54;100827.25;;;9.32;100.00
32131;BME280;18639;50.716;7.086;2023-04-02T12:17:33;100822.69;;;9.20;100.00
32131;BME280;18639;50.716;7.086;2023-04-02T12:22:35;100836.00;;;9.12;100.00
32131;BME280;18639;50.716;7.086;2023-04-02T12:25:20;100841.06;;;9.14;100.00
32131;BME280;18639;50.716;7.086;2023-04-02T12:27:47;100845.78;;;9.23;100.00
32131;BME280;18639;50.716;7.086;2023-04-02T12:30:26;100836.00;;;9.12;100.00
32131;BME280;18639;50.716;7.086;2023-04-02T12:32:52;100851.16;;;9.18;100.00
32131;BME280;18639;50.716;7.086;2023-04-02T12:35:28;100856.47;;;9.15;100.00
32131;BME280;18639;50.716;7.086;2023-04-02T12:37:55;100851.84;;;9.22;100.00
32131;BME280;18639;50.716;7.086;2023-04-02T12:40:23;100862.97;;;9.22;100.00
32131;BME280;18639;50.716;7.086;2023-04-02T12:42:48;100867.13;;;9.25;100.00
32131;BME280;18639;50.716;7.086;2023-04-02T12:45:40;100855.09;;;9.08;100.00
32131;BME280;18639;50.716;7.086;2023-04-02T12:48:05;100862.16;;;8.87;100.00
32131;BME280;18639;50.716;7.086;2023-04-02T12:50:33;100857.28;;;8.64;100.00
32131;BME280;18639;50.716;7.086;2023-04-02T12:52:58;100869.13;;;8.85;100.00
32131;BME280;18639;50.716;7.086;2023-04-02T12:55:26;100871.25;;;8.95;100.00
32131;BME280;18639;50.716;7.086;2023-04-02T12:57:55;100854.19;;;8.92;100.00
32131;BME280;18639;50.716;7.086;2023-04-02T13:02:59;100883.84;;;9.01;100.00
32131;BME280;18639;50.716;7.086;2023-04-02T13:05:34;100891.41;;;8.69;100.00
32131;BME280;18639;50.716;7.086;2023-04-02T13:08:00;100897.38;;;8.70;100.00
32131;BME280;18639;50.716;7.086;2023-04-02T13:10:27;100894.13;;;8.83;100.00
32131;BME280;18639;50.716;7.086;2023-04-02T13:12:57;100897.94;;;8.94;100.00
32131;BME280;18639;50.716;7.086;2023-04-02T13:15:29;100890.78;;;8.81;100.00
32131;BME280;18639;50.716;7.086;2023-04-02T13:20:40;100885.94;;;8.93;100.00
32131;BME280;18639;50.716;7.086;2023-04-02T13:25:53;100892.84;;;9.09;100.00
32131;BME280;18639;50.716;7.086;2023-04-02T13:28:20;100884.28;;;9.09;100.00
32131;BME280;18639;50.716;7.086;2023-04-02T13:30:46;100885.97;;;9.10;100.00
32131;BME280;18639;50.716;7.086;2023-04-02T13:33:12;100891.88;;;9.12;100.00
32131;BME280;18639;50.716;7.086;2023-04-02T13:35:38;100907.34;;;9.29;100.00
32131;BME280;18639;50.716;7.086;2023-04-02T13:38:03;100911.38;;;9.35;100.00
32131;BME280;18639;50.716;7.086;2023-04-02T13:40:31;100908.09;;;9.31;100.00
32131;BME280;18639;50.716;7.086;2023-04-02T13:42:57;100921.44;;;9.39;100.00
32131;BME280;18639;50.716;7.086;2023-04-02T13:45:26;100928.25;;;9.40;100.00
32131;BME280;18639;50.716;7.086;2023-04-02T13:47:52;100919.72;;;9.40;100.00
32131;BME280;18639;50.716;7.086;2023-04-02T13:50:20;100925.66;;;9.40;100.00
32131;BME280;18639;50.716;7.086;2023-04-02T13:52:47;100931.16;;;9.34;100.00
32131;BME280;18639;50.716;7.086;2023-04-02T13:55:15;100929.97;;;9.24;100.00
32131;BME280;18639;50.716;7.086;2023-04-02T13:57:41;100942.44;;;9.32;100.00
32131;BME280;18639;50.716;7.086;2023-04-02T14:00:07;100934.19;;;9.25;100.00
32131;BME280;18639;50.716;7.086;2023-04-02T14:02:33;100913.66;;;9.23;100.00
32131;BME280;18639;50.716;7.086;2023-04-02T14:11:07;100947.91;;;9.43;100.00
32131;BME280;18639;50.716;7.086;2023-04-02T14:13:43;100954.19;;;9.20;100.00
32131;BME280;18639;50.716;7.086;2023-04-02T14:16:36;100950.47;;;8.91;100.00
32131;BME280;18639;50.716;7.086;2023-04-02T14:19:19;100963.59;;;8.86;100.00
32131;BME280;18639;50.716;7.086;2023-04-02T14:24:45;100973.28;;;8.99;100.00
32131;BME280;18639;50.716;7.086;2023-04-02T14:27:23;100989.03;;;8.93;100.00
32131;BME280;18639;50.716;7.086;2023-04-02T14:35:07;100990.53;;;8.79;100.00
32131;BME280;18639;50.716;7.086;2023-04-02T14:40:26;100998.94;;;8.83;100.00
32131;BME280;18639;50.716;7.086;2023-04-02T14:43:16;101011.00;;;8.82;100.00
32131;BME280;18639;50.716;7.086;2023-04-02T14:46:04;101000.34;;;8.71;100.00
32131;BME280;18639;50.716;7.086;2023-04-02T14:53:55;101010.88;;;8.67;100.00
32131;BME280;18639;50.716;7.086;2023-04-02T14:56:23;101004.81;;;8.68;100.00
32131;BME280;18639;50.716;7.086;2023-04-02T15:01:42;101017.91;;;8.63;100.00
32131;BME280;18639;50.716;7.086;2023-04-02T15:04:13;100993.34;;;8.56;100.00
32131;BME280;18639;50.716;7.086;2023-04-02T15:06:47;101022.78;;;8.69;100.00
32131;BME280;18639;50.716;7.086;2023-04-02T15:09:39;101022.91;;;8.66;100.00
32131;BME280;18639;50.716;7.086;2023-04-02T15:12:19;101039.50;;;8.61;100.00
32131;BME280;18639;50.716;7.086;2023-04-02T15:15:01;101042.91;;;8.61;100.00
32131;BME280;18639;50.716;7.086;2023-04-02T15:17:28;101042.28;;;8.56;100.00
32131;BME280;18639;50.716;7.086;2023-04-02T15:20:07;101043.69;;;8.63;100.00
32131;BME280;18639;50.716;7.086;2023-04-02T15:22:56;101046.09;;;8.66;100.00